sensor_id;sensor_type;location;lat;lon;timestamp;P1;durP1;ratioP1;P2;durP2;ratioP2
68353;SDS011;55274;43.060;25.618;2023-09-19T00:00:22;6.45;;;3.00;;
68353;SDS011;55274;43.060;25.618;2023-09-19T00:02:57;6.78;;;3.20;;
68353;SDS011;55274;43.060;25.618;2023-09-19T00:05:27;6.70;;;3.58;;
68353;SDS011;55274;43.060;25.618;2023-09-19T00:07:54;5.18;;;3.10;;
68353;SDS011;55274;43.060;25.618;2023-09-19T00:10:26;6.68;;;3.35;;
68353;SDS011;55274;43.060;25.618;2023-09-19T00:12:56;4.68;;;2.88;;
68353;SDS011;55274;43.060;25.618;2023-09-19T00:15:30;6.60;;;3.30;;
68353;SDS011;55274;43.060;25.618;2023-09-19T00:18:00;7.93;;;3.33;;
68353;SDS011;55274;43.060;25.618;2023-09-19T00:20:26;6.63;;;3.63;;
68353;SDS011;55274;43.060;25.618;2023-09-19T00:22:54;5.93;;;3.50;;
68353;SDS011;55274;43.060;25.618;2023-09-19T00:25:20;6.38;;;3.05;;
68353;SDS011;55274;43.060;25.618;2023-09-19T00:27:46;6.88;;;3.50;;
68353;SDS011;55274;43.060;25.618;2023-09-19T00:30:14;7.05;;;3.63;;
68353;SDS011;55274;43.060;25.618;2023-09-19T00:32:49;7.75;;;3.65;;
68353;SDS011;55274;43.060;25.618;2023-09-19T00:35:20;6.07;;;3.05;;
68353;SDS011;55274;43.060;25.618;2023-09-19T00:37:49;6.25;;;3.65;;
68353;SDS011;55274;43.060;25.618;2023-09-19T00:40:16;6.60;;;3.38;;
68353;SDS011;55274;43.060;25.618;2023-09-19T00:42:42;9.02;;;3.72;;
68353;SDS011;55274;43.060;25.618;2023-09-19T00:45:09;7.10;;;3.17;;
68353;SDS011;55274;43.060;25.618;2023-09-19T00:47:40;8.70;;;3.80;;
68353;SDS011;55274;43.060;25.618;2023-09-19T00:50:17;8.43;;;3.05;;
68353;SDS011;55274;43.060;25.618;2023-09-19T00:52:44;6.97;;;3.17;;
68353;SDS011;55274;43.060;25.618;2023-09-19T00:55:11;5.88;;;3.20;;
68353;SDS011;55274;43.060;25.618;2023-09-19T00:57:39;5.80;;;3.20;;
68353;SDS011;55274;43.060;25.618;2023-09-19T01:00:06;5.30;;;3.30;;
68353;SDS011;55274;43.060;25.618;2023-09-19T01:05:02;6.35;;;3.15;;
68353;SDS011;55274;43.060;25.618;2023-09-19T01:07:30;5.03;;;3.25;;
68353;SDS011;55274;43.060;25.618;2023-09-19T01:09:58;6.40;;;3.20;;
68353;SDS011;55274;43.060;25.618;2023-09-19T01:12:30;7.28;;;3.03;;
68353;SDS011;55274;43.060;25.618;2023-09-19T01:18:02;4.75;;;3.08;;
68353;SDS011;55274;43.060;25.618;2023-09-19T01:21:21;7.50;;;3.75;;
68353;SDS011;55274;43.060;25.618;2023-09-19T01:32:05;4.80;;;3.20;;
68353;SDS011;55274;43.060;25.618;2023-09-19T01:34:44;13.73;;;3.30;;
68353;SDS011;55274;43.060;25.618;2023-09-19T01:37:13;5.55;;;2.97;;
68353;SDS011;55274;43.060;25.618;2023-09-19T01:39:44;5.03;;;2.70;;
68353;SDS011;55274;43.060;25.618;2023-09-19T01:45:03;6.53;;;3.50;;
68353;SDS011;55274;43.060;25.618;2023-09-19T01:47:33;7.30;;;3.33;;
68353;SDS011;55274;43.060;25.618;2023-09-19T01:52:36;6.38;;;3.38;;
68353;SDS011;55274;43.060;25.618;2023-09-19T01:55:09;5.47;;;3.40;;
68353;SDS011;55274;43.060;25.618;2023-09-19T02:00:42;8.18;;;3.75;;
68353;SDS011;55274;43.060;25.618;2023-09-19T02:03:10;7.05;;;3.75;;
68353;SDS011;55274;43.060;25.618;2023-09-19T02:05:37;5.75;;;3.33;;
68353;SDS011;55274;43.060;25.618;2023-09-19T02:08:04;32.40;;;5.45;;
68353;SDS011;55274;43.060;25.618;2023-09-19T02:10:30;16.95;;;4.65;;
68353;SDS011;55274;43.060;25.618;2023-09-19T02:12:56;13.95;;;4.70;;
68353;SDS011;55274;43.060;25.618;2023-09-19T02:15:22;8.40;;;4.50;;
68353;SDS011;55274;43.060;25.618;2023-09-19T02:17:48;7.65;;;4.07;;
68353;SDS011;55274;43.060;25.618;2023-09-19T02:20:13;9.07;;;4.10;;
68353;SDS011;55274;43.060;25.618;2023-09-19T02:22:42;8.38;;;3.83;;
68353;SDS011;55274;43.060;25.618;2023-09-19T02:25:08;8.52;;;3.30;;
68353;SDS011;55274;43.060;25.618;2023-09-19T02:27:34;8.38;;;4.10;;
68353;SDS011;55274;43.060;25.618;2023-09-19T02:30:00;6.85;;;3.92;;
68353;SDS011;55274;43.060;25.618;2023-09-19T02:32:29;9.77;;;3.95;;
68353;SDS011;55274;43.060;25.618;2023-09-19T02:35:01;8.32;;;3.78;;
68353;SDS011;55274;43.060;25.618;2023-09-19T02:37:29;8.90;;;4.22;;
68353;SDS011;55274;43.060;25.618;2023-09-19T02:39:56;7.75;;;3.95;;
68353;SDS011;55274;43.060;25.618;2023-09-19T02:42:22;12.88;;;4.60;;
68353;SDS011;55274;43.060;25.618;2023-09-19T02:44:47;151.77;;;13.32;;
68353;SDS011;55274;43.060;25.618;2023-09-19T02:47:13;109.65;;;11.45;;
68353;SDS011;55274;43.060;25.618;2023-09-19T02:49:40;65.60;;;7.03;;
68353;SDS011;55274;43.060;25.618;2023-09-19T02:52:07;31.08;;;6.05;;
68353;SDS011;55274;43.060;25.618;2023-09-19T02:54:33;7.25;;;4.03;;
68353;SDS011;55274;43.060;25.618;2023-09-19T02:56:59;7.47;;;3.67;;
68353;SDS011;55274;43.060;25.618;2023-09-19T02:59:24;7.22;;;4.20;;
68353;SDS011;55274;43.060;25.618;2023-09-19T03:01:50;9.80;;;4.57;;
68353;SDS011;55274;43.060;25.618;2023-09-19T03:04:16;8.13;;;3.90;;
68353;SDS011;55274;43.060;25.618;2023-09-19T03:06:45;7.22;;;3.75;;
68353;SDS011;55274;43.060;25.618;2023-09-19T03:09:11;8.82;;;4.18;;
68353;SDS011;55274;43.060;25.618;2023-09-19T03:11:39;7.97;;;3.92;;
68353;SDS011;55274;43.060;25.618;2023-09-19T03:14:09;24.52;;;6.88;;
68353;SDS011;55274;43.060;25.618;2023-09-19T03:16:36;15.52;;;5.10;;
68353;SDS011;55274;43.060;25.618;2023-09-19T03:19:03;18.52;;;5.57;;
68353;SDS011;55274;43.060;25.618;2023-09-19T03:21:29;11.65;;;5.22;;
68353;SDS011;55274;43.060;25.618;2023-09-19T03:23:55;12.52;;;4.35;;
68353;SDS011;55274;43.060;25.618;2023-09-19T03:26:21;20.83;;;5.00;;
68353;SDS011;55274;43.060;25.618;2023-09-19T03:28:47;7.22;;;4.00;;
68353;SDS011;55274;43.060;25.618;2023-09-19T03:31:12;10.57;;;4.88;;
68353;SDS011;55274;43.060;25.618;2023-09-19T03:33:38;72.53;;;9.88;;
68353;SDS011;55274;43.060;25.618;2023-09-19T03:36:04;14.40;;;5.07;;
68353;SDS011;55274;43.060;25.618;2023-09-19T03:38:30;14.00;;;4.30;;
68353;SDS011;55274;43.060;25.618;2023-09-19T03:40:57;10.52;;;4.13;;
68353;SDS011;55274;43.060;25.618;2023-09-19T03:43:23;11.10;;;5.97;;
68353;SDS011;55274;43.060;25.618;2023-09-19T03:45:50;8.07;;;4.10;;
68353;SDS011;55274;43.060;25.618;2023-09-19T03:48:16;7.78;;;4.15;;
68353;SDS011;55274;43.060;25.618;2023-09-19T03:50:42;7.88;;;4.43;;
68353;SDS011;55274;43.060;25.618;2023-09-19T03:53:09;16.85;;;4.25;;
68353;SDS011;55274;43.060;25.618;2023-09-19T03:55:35;53.85;;;7.57;;
68353;SDS011;55274;43.060;25.618;2023-09-19T03:58:01;31.33;;;6.78;;
68353;SDS011;55274;43.060;25.618;2023-09-19T04:00:27;20.30;;;5.85;;
68353;SDS011;55274;43.060;25.618;2023-09-19T04:02:57;13.07;;;5.25;;
68353;SDS011;55274;43.060;25.618;2023-09-19T04:05:23;13.68;;;4.70;;
68353;SDS011;55274;43.060;25.618;2023-09-19T04:07:50;34.65;;;6.80;;
68353;SDS011;55274;43.060;25.618;2023-09-19T04:10:16;21.88;;;5.10;;
68353;SDS011;55274;43.060;25.618;2023-09-19T04:12:54;13.73;;;4.80;;
68353;SDS011;55274;43.060;25.618;2023-09-19T04:15:21;10.75;;;4.65;;
68353;SDS011;55274;43.060;25.618;2023-09-19T04:17:48;20.27;;;5.85;;
68353;SDS011;55274;43.060;25.618;2023-09-19T04:20:15;21.25;;;5.10;;
68353;SDS011;55274;43.060;25.618;2023-09-19T04:22:50;26.55;;;6.15;;
68353;SDS011;55274;43.060;25.618;2023-09-19T04:25:16;13.65;;;4.32;;
68353;SDS011;55274;43.060;25.618;2023-09-19T04:27:44;35.33;;;5.90;;
68353;SDS011;55274;43.060;25.618;2023-09-19T04:30:10;22.15;;;4.97;;
68353;SDS011;55274;43.060;25.618;2023-09-19T04:32:40;15.48;;;4.35;;
68353;SDS011;55274;43.060;25.618;2023-09-19T04:35:06;14.27;;;4.32;;
68353;SDS011;55274;43.060;25.618;2023-09-19T04:37:35;9.30;;;4.50;;
68353;SDS011;55274;43.060;25.618;2023-09-19T04:40:08;31.90;;;6.53;;
68353;SDS011;55274;43.060;25.618;2023-09-19T04:42:42;44.20;;;5.82;;
68353;SDS011;55274;43.060;25.618;2023-09-19T04:45:09;21.73;;;4.93;;
68353;SDS011;55274;43.060;25.618;2023-09-19T04:47:38;9.50;;;4.50;;
68353;SDS011;55274;43.060;25.618;2023-09-19T04:50:05;25.45;;;6.00;;
68353;SDS011;55274;43.060;25.618;2023-09-19T04:52:32;41.20;;;6.47;;
68353;SDS011;55274;43.060;25.618;2023-09-19T04:54:58;21.30;;;5.00;;
68353;SDS011;55274;43.060;25.618;2023-09-19T04:57:24;15.88;;;4.75;;
68353;SDS011;55274;43.060;25.618;2023-09-19T04:59:51;10.10;;;3.97;;
68353;SDS011;55274;43.060;25.618;2023-09-19T05:02:16;14.35;;;5.38;;
68353;SDS011;55274;43.060;25.618;2023-09-19T05:04:46;13.18;;;5.45;;
68353;SDS011;55274;43.060;25.618;2023-09-19T05:07:12;15.35;;;5.93;;
68353;SDS011;55274;43.060;25.618;2023-09-19T05:09:41;10.70;;;5.43;;
68353;SDS011;55274;43.060;25.618;2023-09-19T05:12:10;17.08;;;6.30;;
68353;SDS011;55274;43.060;25.618;2023-09-19T05:14:36;12.48;;;6.13;;
68353;SDS011;55274;43.060;25.618;2023-09-19T05:17:01;14.88;;;5.28;;
68353;SDS011;55274;43.060;25.618;2023-09-19T05:19:29;11.23;;;4.22;;
68353;SDS011;55274;43.060;25.618;2023-09-19T05:21:54;22.70;;;5.40;;
68353;SDS011;55274;43.060;25.618;2023-09-19T05:24:20;8.93;;;4.30;;
68353;SDS011;55274;43.060;25.618;2023-09-19T05:26:48;11.32;;;4.60;;
68353;SDS011;55274;43.060;25.618;2023-09-19T05:29:14;9.18;;;4.07;;
68353;SDS011;55274;43.060;25.618;2023-09-19T05:31:40;9.43;;;4.07;;
68353;SDS011;55274;43.060;25.618;2023-09-19T05:34:07;38.20;;;8.40;;
68353;SDS011;55274;43.060;25.618;2023-09-19T05:36:34;12.02;;;4.55;;
68353;SDS011;55274;43.060;25.618;2023-09-19T05:38:59;21.55;;;5.68;;
68353;SDS011;55274;43.060;25.618;2023-09-19T05:41:25;16.48;;;5.00;;
68353;SDS011;55274;43.060;25.618;2023-09-19T05:44:04;25.17;;;5.60;;
68353;SDS011;55274;43.060;25.618;2023-09-19T05:46:32;21.27;;;5.25;;
68353;SDS011;55274;43.060;25.618;2023-09-19T05:48:57;20.60;;;5.93;;
68353;SDS011;55274;43.060;25.618;2023-09-19T05:51:23;24.08;;;4.75;;
68353;SDS011;55274;43.060;25.618;2023-09-19T05:53:50;19.27;;;5.00;;
68353;SDS011;55274;43.060;25.618;2023-09-19T05:56:17;14.07;;;4.70;;
68353;SDS011;55274;43.060;25.618;2023-09-19T05:58:44;25.50;;;7.05;;
68353;SDS011;55274;43.060;25.618;2023-09-19T06:01:09;26.60;;;5.40;;
68353;SDS011;55274;43.060;25.618;2023-09-19T06:03:35;22.20;;;5.70;;
68353;SDS011;55274;43.060;25.618;2023-09-19T06:06:01;32.35;;;5.57;;
68353;SDS011;55274;43.060;25.618;2023-09-19T06:08:27;20.35;;;6.00;;
68353;SDS011;55274;43.060;25.618;2023-09-19T06:10:54;18.90;;;4.75;;
68353;SDS011;55274;43.060;25.618;2023-09-19T06:13:19;19.50;;;5.20;;
68353;SDS011;55274;43.060;25.618;2023-09-19T06:15:45;10.38;;;4.45;;
68353;SDS011;55274;43.060;25.618;2023-09-19T06:18:14;13.98;;;4.50;;
68353;SDS011;55274;43.060;25.618;2023-09-19T06:20:45;9.70;;;4.50;;
68353;SDS011;55274;43.060;25.618;2023-09-19T06:23:16;7.95;;;3.47;;
68353;SDS011;55274;43.060;25.618;2023-09-19T06:25:45;12.50;;;4.18;;
68353;SDS011;55274;43.060;25.618;2023-09-19T06:28:10;12.77;;;4.55;;
68353;SDS011;55274;43.060;25.618;2023-09-19T06:30:39;11.55;;;4.88;;
68353;SDS011;55274;43.060;25.618;2023-09-19T06:33:05;18.77;;;8.02;;
68353;SDS011;55274;43.060;25.618;2023-09-19T06:35:32;14.80;;;7.53;;
68353;SDS011;55274;43.060;25.618;2023-09-19T06:37:59;35.38;;;17.30;;
68353;SDS011;55274;43.060;25.618;2023-09-19T06:40:28;46.08;;;18.70;;
68353;SDS011;55274;43.060;25.618;2023-09-19T06:42:56;41.15;;;17.83;;
68353;SDS011;55274;43.060;25.618;2023-09-19T06:45:22;39.40;;;15.57;;
68353;SDS011;55274;43.060;25.618;2023-09-19T06:47:51;48.13;;;15.95;;
68353;SDS011;55274;43.060;25.618;2023-09-19T06:50:17;50.85;;;17.92;;
68353;SDS011;55274;43.060;25.618;2023-09-19T06:52:45;56.53;;;17.38;;
68353;SDS011;55274;43.060;25.618;2023-09-19T06:55:15;55.38;;;18.75;;
68353;SDS011;55274;43.060;25.618;2023-09-19T06:57:42;31.98;;;12.40;;
68353;SDS011;55274;43.060;25.618;2023-09-19T07:00:11;26.20;;;9.95;;
68353;SDS011;55274;43.060;25.618;2023-09-19T07:05:07;25.38;;;11.05;;
68353;SDS011;55274;43.060;25.618;2023-09-19T07:07:33;35.45;;;11.95;;
68353;SDS011;55274;43.060;25.618;2023-09-19T07:10:02;30.40;;;12.18;;
68353;SDS011;55274;43.060;25.618;2023-09-19T07:12:30;27.65;;;8.75;;
68353;SDS011;55274;43.060;25.618;2023-09-19T07:14:58;23.20;;;8.90;;
68353;SDS011;55274;43.060;25.618;2023-09-19T07:17:23;24.02;;;8.02;;
68353;SDS011;55274;43.060;25.618;2023-09-19T07:19:49;15.82;;;6.10;;
68353;SDS011;55274;43.060;25.618;2023-09-19T07:22:15;14.23;;;5.78;;
68353;SDS011;55274;43.060;25.618;2023-09-19T07:27:58;25.77;;;6.50;;
68353;SDS011;55274;43.060;25.618;2023-09-19T07:30:27;21.45;;;4.97;;
68353;SDS011;55274;43.060;25.618;2023-09-19T07:32:53;19.33;;;5.10;;
68353;SDS011;55274;43.060;25.618;2023-09-19T07:35:18;8.13;;;3.42;;
68353;SDS011;55274;43.060;25.618;2023-09-19T07:37:48;15.15;;;4.05;;
68353;SDS011;55274;43.060;25.618;2023-09-19T07:40:17;15.43;;;4.05;;
68353;SDS011;55274;43.060;25.618;2023-09-19T07:42:44;7.40;;;3.05;;
68353;SDS011;55274;43.060;25.618;2023-09-19T07:45:12;12.48;;;3.17;;
68353;SDS011;55274;43.060;25.618;2023-09-19T07:47:49;9.73;;;2.75;;
68353;SDS011;55274;43.060;25.618;2023-09-19T07:52:43;8.48;;;2.90;;
68353;SDS011;55274;43.060;25.618;2023-09-19T07:55:10;6.90;;;2.70;;
68353;SDS011;55274;43.060;25.618;2023-09-19T07:57:41;14.80;;;3.00;;
68353;SDS011;55274;43.060;25.618;2023-09-19T08:00:08;13.70;;;3.65;;
68353;SDS011;55274;43.060;25.618;2023-09-19T08:02:35;7.55;;;3.08;;
68353;SDS011;55274;43.060;25.618;2023-09-19T08:05:03;9.95;;;3.72;;
68353;SDS011;55274;43.060;25.618;2023-09-19T08:07:38;7.90;;;2.15;;
68353;SDS011;55274;43.060;25.618;2023-09-19T08:10:05;7.97;;;2.88;;
68353;SDS011;55274;43.060;25.618;2023-09-19T08:12:42;4.38;;;1.90;;
68353;SDS011;55274;43.060;25.618;2023-09-19T08:15:20;3.65;;;2.10;;
68353;SDS011;55274;43.060;25.618;2023-09-19T08:17:46;23.17;;;3.38;;
68353;SDS011;55274;43.060;25.618;2023-09-19T08:20:13;14.85;;;3.13;;
68353;SDS011;55274;43.060;25.618;2023-09-19T08:22:52;4.47;;;1.95;;
68353;SDS011;55274;43.060;25.618;2023-09-19T08:25:22;4.57;;;1.80;;
68353;SDS011;55274;43.060;25.618;2023-09-19T08:27:49;5.15;;;1.85;;
68353;SDS011;55274;43.060;25.618;2023-09-19T08:30:16;6.70;;;1.90;;
68353;SDS011;55274;43.060;25.618;2023-09-19T08:32:49;13.32;;;2.65;;
68353;SDS011;55274;43.060;25.618;2023-09-19T08:35:15;15.60;;;2.50;;
68353;SDS011;55274;43.060;25.618;2023-09-19T08:37:44;3.13;;;1.95;;
68353;SDS011;55274;43.060;25.618;2023-09-19T08:40:13;17.20;;;2.80;;
68353;SDS011;55274;43.060;25.618;2023-09-19T08:45:21;17.45;;;3.00;;
68353;SDS011;55274;43.060;25.618;2023-09-19T08:50:43;5.38;;;2.40;;
68353;SDS011;55274;43.060;25.618;2023-09-19T08:53:26;4.13;;;2.13;;
68353;SDS011;55274;43.060;25.618;2023-09-19T08:55:57;9.60;;;2.25;;
68353;SDS011;55274;43.060;25.618;2023-09-19T08:58:28;9.15;;;2.90;;
68353;SDS011;55274;43.060;25.618;2023-09-19T09:01:00;8.88;;;2.40;;
68353;SDS011;55274;43.060;25.618;2023-09-19T09:03:26;4.63;;;1.90;;
68353;SDS011;55274;43.060;25.618;2023-09-19T09:05:57;9.57;;;2.90;;
68353;SDS011;55274;43.060;25.618;2023-09-19T09:08:32;28.20;;;3.33;;
68353;SDS011;55274;43.060;25.618;2023-09-19T09:10:58;33.30;;;4.20;;
68353;SDS011;55274;43.060;25.618;2023-09-19T09:13:24;6.90;;;2.13;;
68353;SDS011;55274;43.060;25.618;2023-09-19T09:15:51;22.65;;;3.30;;
68353;SDS011;55274;43.060;25.618;2023-09-19T09:18:19;13.32;;;2.70;;
68353;SDS011;55274;43.060;25.618;2023-09-19T09:20:45;27.52;;;3.00;;
68353;SDS011;55274;43.060;25.618;2023-09-19T09:23:12;10.05;;;2.22;;
68353;SDS011;55274;43.060;25.618;2023-09-19T09:25:53;5.35;;;2.10;;
68353;SDS011;55274;43.060;25.618;2023-09-19T09:28:24;3.15;;;2.03;;
68353;SDS011;55274;43.060;25.618;2023-09-19T09:30:53;3.00;;;2.13;;
68353;SDS011;55274;43.060;25.618;2023-09-19T09:33:20;11.40;;;2.60;;
68353;SDS011;55274;43.060;25.618;2023-09-19T09:35:50;8.30;;;2.15;;
68353;SDS011;55274;43.060;25.618;2023-09-19T09:38:44;47.92;;;4.80;;
68353;SDS011;55274;43.060;25.618;2023-09-19T09:41:13;31.75;;;3.80;;
68353;SDS011;55274;43.060;25.618;2023-09-19T09:43:52;6.93;;;1.85;;
68353;SDS011;55274;43.060;25.618;2023-09-19T09:46:20;15.68;;;2.88;;
68353;SDS011;55274;43.060;25.618;2023-09-19T09:48:59;25.38;;;4.15;;
68353;SDS011;55274;43.060;25.618;2023-09-19T09:51:45;5.40;;;2.35;;
68353;SDS011;55274;43.060;25.618;2023-09-19T09:54:22;4.80;;;2.30;;
68353;SDS011;55274;43.060;25.618;2023-09-19T09:56:56;8.02;;;2.05;;
68353;SDS011;55274;43.060;25.618;2023-09-19T10:02:43;4.90;;;2.00;;
68353;SDS011;55274;43.060;25.618;2023-09-19T10:07:53;8.40;;;2.20;;
68353;SDS011;55274;43.060;25.618;2023-09-19T10:10:34;6.03;;;1.60;;
68353;SDS011;55274;43.060;25.618;2023-09-19T10:13:05;10.88;;;2.25;;
68353;SDS011;55274;43.060;25.618;2023-09-19T10:15:33;7.78;;;2.13;;
68353;SDS011;55274;43.060;25.618;2023-09-19T10:18:01;5.95;;;1.88;;
68353;SDS011;55274;43.060;25.618;2023-09-19T10:20:30;4.78;;;1.95;;
68353;SDS011;55274;43.060;25.618;2023-09-19T10:23:00;13.63;;;3.03;;
68353;SDS011;55274;43.060;25.618;2023-09-19T10:25:34;9.32;;;2.10;;
68353;SDS011;55274;43.060;25.618;2023-09-19T10:28:03;2.85;;;1.92;;
68353;SDS011;55274;43.060;25.618;2023-09-19T10:30:36;3.05;;;2.05;;
68353;SDS011;55274;43.060;25.618;2023-09-19T10:33:10;5.97;;;2.17;;
68353;SDS011;55274;43.060;25.618;2023-09-19T10:35:38;3.97;;;1.90;;
68353;SDS011;55274;43.060;25.618;2023-09-19T10:38:06;7.43;;;2.75;;
68353;SDS011;55274;43.060;25.618;2023-09-19T10:40:35;33.83;;;3.78;;
68353;SDS011;55274;43.060;25.618;2023-09-19T10:43:05;48.80;;;4.20;;
68353;SDS011;55274;43.060;25.618;2023-09-19T10:45:32;11.88;;;2.08;;
68353;SDS011;55274;43.060;25.618;2023-09-19T10:47:59;6.00;;;1.80;;
68353;SDS011;55274;43.060;25.618;2023-09-19T10:50:30;7.63;;;2.00;;
68353;SDS011;55274;43.060;25.618;2023-09-19T10:53:02;2.35;;;1.85;;
68353;SDS011;55274;43.060;25.618;2023-09-19T10:55:33;20.65;;;3.75;;
68353;SDS011;55274;43.060;25.618;2023-09-19T10:58:00;4.30;;;1.80;;
68353;SDS011;55274;43.060;25.618;2023-09-19T11:01:13;3.45;;;1.70;;
68353;SDS011;55274;43.060;25.618;2023-09-19T11:03:40;4.18;;;1.92;;
68353;SDS011;55274;43.060;25.618;2023-09-19T11:06:16;16.77;;;2.75;;
68353;SDS011;55274;43.060;25.618;2023-09-19T11:08:57;9.88;;;2.78;;
68353;SDS011;55274;43.060;25.618;2023-09-19T11:11:42;5.50;;;1.90;;
68353;SDS011;55274;43.060;25.618;2023-09-19T11:30:43;8.75;;;2.10;;
68353;SDS011;55274;43.060;25.618;2023-09-19T11:33:27;21.65;;;3.40;;
68353;SDS011;55274;43.060;25.618;2023-09-19T11:36:16;21.35;;;2.72;;
68353;SDS011;55274;43.060;25.618;2023-09-19T11:43:46;4.22;;;2.20;;
68353;SDS011;55274;43.060;25.618;2023-09-19T11:49:16;9.07;;;2.20;;
68353;SDS011;55274;43.060;25.618;2023-09-19T11:51:50;7.53;;;2.00;;
68353;SDS011;55274;43.060;25.618;2023-09-19T11:54:19;10.88;;;2.00;;
68353;SDS011;55274;43.060;25.618;2023-09-19T11:56:55;20.45;;;2.97;;
68353;SDS011;55274;43.060;25.618;2023-09-19T11:59:26;6.47;;;2.20;;
68353;SDS011;55274;43.060;25.618;2023-09-19T12:01:54;4.88;;;1.77;;
68353;SDS011;55274;43.060;25.618;2023-09-19T12:07:12;45.55;;;7.25;;
68353;SDS011;55274;43.060;25.618;2023-09-19T12:09:48;4.45;;;2.20;;
68353;SDS011;55274;43.060;25.618;2023-09-19T12:12:25;5.10;;;2.25;;
68353;SDS011;55274;43.060;25.618;2023-09-19T12:14:52;10.90;;;3.65;;
68353;SDS011;55274;43.060;25.618;2023-09-19T12:17:19;3.35;;;2.05;;
68353;SDS011;55274;43.060;25.618;2023-09-19T12:19:52;4.57;;;1.83;;
68353;SDS011;55274;43.060;25.618;2023-09-19T12:22:19;2.88;;;1.80;;
68353;SDS011;55274;43.060;25.618;2023-09-19T12:24:46;2.70;;;1.70;;
68353;SDS011;55274;43.060;25.618;2023-09-19T12:27:12;8.27;;;2.55;;
68353;SDS011;55274;43.060;25.618;2023-09-19T12:32:14;3.53;;;1.90;;
68353;SDS011;55274;43.060;25.618;2023-09-19T12:34:42;7.95;;;2.20;;
68353;SDS011;55274;43.060;25.618;2023-09-19T12:37:16;2.72;;;1.95;;
68353;SDS011;55274;43.060;25.618;2023-09-19T12:39:48;3.67;;;2.15;;
68353;SDS011;55274;43.060;25.618;2023-09-19T12:42:24;3.92;;;1.98;;
68353;SDS011;55274;43.060;25.618;2023-09-19T12:44:54;4.60;;;1.83;;
68353;SDS011;55274;43.060;25.618;2023-09-19T12:47:22;3.03;;;1.83;;
68353;SDS011;55274;43.060;25.618;2023-09-19T12:50:08;6.50;;;2.40;;
68353;SDS011;55274;43.060;25.618;2023-09-19T12:52:50;7.60;;;2.08;;
68353;SDS011;55274;43.060;25.618;2023-09-19T12:57:59;7.55;;;2.35;;
68353;SDS011;55274;43.060;25.618;2023-09-19T13:00:40;17.65;;;5.38;;
68353;SDS011;55274;43.060;25.618;2023-09-19T13:08:45;4.82;;;2.35;;
68353;SDS011;55274;43.060;25.618;2023-09-19T13:11:19;7.05;;;2.33;;
68353;SDS011;55274;43.060;25.618;2023-09-19T13:16:52;5.80;;;2.22;;
68353;SDS011;55274;43.060;25.618;2023-09-19T13:22:35;3.20;;;1.88;;
68353;SDS011;55274;43.060;25.618;2023-09-19T13:25:15;4.30;;;2.15;;
68353;SDS011;55274;43.060;25.618;2023-09-19T13:27:52;3.45;;;1.85;;
68353;SDS011;55274;43.060;25.618;2023-09-19T13:30:21;3.90;;;1.80;;
68353;SDS011;55274;43.060;25.618;2023-09-19T13:32:50;8.18;;;2.35;;
68353;SDS011;55274;43.060;25.618;2023-09-19T13:35:18;3.33;;;2.10;;
68353;SDS011;55274;43.060;25.618;2023-09-19T13:37:44;5.28;;;1.88;;
68353;SDS011;55274;43.060;25.618;2023-09-19T13:40:16;9.25;;;2.13;;
68353;SDS011;55274;43.060;25.618;2023-09-19T13:42:43;6.85;;;1.85;;
68353;SDS011;55274;43.060;25.618;2023-09-19T13:45:09;4.20;;;1.90;;
68353;SDS011;55274;43.060;25.618;2023-09-19T13:47:37;6.30;;;2.10;;
68353;SDS011;55274;43.060;25.618;2023-09-19T13:50:04;5.88;;;2.20;;
68353;SDS011;55274;43.060;25.618;2023-09-19T13:52:30;4.15;;;2.22;;
68353;SDS011;55274;43.060;25.618;2023-09-19T13:54:57;4.63;;;2.20;;
68353;SDS011;55274;43.060;25.618;2023-09-19T13:57:23;3.38;;;2.28;;
68353;SDS011;55274;43.060;25.618;2023-09-19T13:59:50;3.95;;;2.10;;
68353;SDS011;55274;43.060;25.618;2023-09-19T14:02:17;4.05;;;2.15;;
68353;SDS011;55274;43.060;25.618;2023-09-19T14:04:51;3.70;;;2.05;;
68353;SDS011;55274;43.060;25.618;2023-09-19T14:07:17;6.88;;;2.40;;
68353;SDS011;55274;43.060;25.618;2023-09-19T14:09:45;5.40;;;2.05;;
68353;SDS011;55274;43.060;25.618;2023-09-19T14:12:11;3.90;;;2.42;;
68353;SDS011;55274;43.060;25.618;2023-09-19T14:14:37;3.25;;;1.85;;
68353;SDS011;55274;43.060;25.618;2023-09-19T14:17:03;3.47;;;2.20;;
68353;SDS011;55274;43.060;25.618;2023-09-19T14:19:30;4.53;;;2.15;;
68353;SDS011;55274;43.060;25.618;2023-09-19T14:21:56;4.07;;;2.15;;
68353;SDS011;55274;43.060;25.618;2023-09-19T14:24:22;4.55;;;2.03;;
68353;SDS011;55274;43.060;25.618;2023-09-19T14:26:48;4.63;;;1.80;;
68353;SDS011;55274;43.060;25.618;2023-09-19T14:29:14;9.27;;;2.70;;
68353;SDS011;55274;43.060;25.618;2023-09-19T14:31:41;3.50;;;1.90;;
68353;SDS011;55274;43.060;25.618;2023-09-19T14:34:07;6.68;;;1.92;;
68353;SDS011;55274;43.060;25.618;2023-09-19T14:36:37;3.90;;;2.10;;
68353;SDS011;55274;43.060;25.618;2023-09-19T14:39:06;4.63;;;2.08;;
68353;SDS011;55274;43.060;25.618;2023-09-19T14:41:33;6.50;;;2.50;;
68353;SDS011;55274;43.060;25.618;2023-09-19T14:43:59;5.85;;;2.60;;
68353;SDS011;55274;43.060;25.618;2023-09-19T14:46:24;5.07;;;2.15;;
68353;SDS011;55274;43.060;25.618;2023-09-19T14:48:51;3.00;;;1.90;;
68353;SDS011;55274;43.060;25.618;2023-09-19T14:51:17;4.97;;;2.17;;
68353;SDS011;55274;43.060;25.618;2023-09-19T14:53:44;4.20;;;2.25;;
68353;SDS011;55274;43.060;25.618;2023-09-19T14:56:11;3.95;;;2.15;;
68353;SDS011;55274;43.060;25.618;2023-09-19T14:58:38;2.67;;;2.00;;
68353;SDS011;55274;43.060;25.618;2023-09-19T15:01:05;3.35;;;2.08;;
68353;SDS011;55274;43.060;25.618;2023-09-19T15:03:32;5.85;;;2.55;;
68353;SDS011;55274;43.060;25.618;2023-09-19T15:06:03;21.13;;;3.15;;
68353;SDS011;55274;43.060;25.618;2023-09-19T15:11:03;5.03;;;2.33;;
68353;SDS011;55274;43.060;25.618;2023-09-19T15:13:37;3.25;;;2.10;;
68353;SDS011;55274;43.060;25.618;2023-09-19T15:16:04;4.05;;;2.05;;
68353;SDS011;55274;43.060;25.618;2023-09-19T15:21:05;102.53;;;7.80;;
68353;SDS011;55274;43.060;25.618;2023-09-19T15:23:32;84.88;;;7.30;;
68353;SDS011;55274;43.060;25.618;2023-09-19T15:25:59;89.70;;;8.90;;
68353;SDS011;55274;43.060;25.618;2023-09-19T15:28:26;30.67;;;4.03;;
68353;SDS011;55274;43.060;25.618;2023-09-19T15:30:57;25.40;;;3.20;;
68353;SDS011;55274;43.060;25.618;2023-09-19T15:33:27;11.93;;;2.45;;
68353;SDS011;55274;43.060;25.618;2023-09-19T15:36:29;4.88;;;2.00;;
68353;SDS011;55274;43.060;25.618;2023-09-19T15:41:37;14.77;;;3.03;;
68353;SDS011;55274;43.060;25.618;2023-09-19T15:44:14;7.28;;;2.50;;
68353;SDS011;55274;43.060;25.618;2023-09-19T15:46:41;4.72;;;1.92;;
68353;SDS011;55274;43.060;25.618;2023-09-19T15:49:08;3.58;;;1.90;;
68353;SDS011;55274;43.060;25.618;2023-09-19T15:51:34;3.92;;;2.40;;
68353;SDS011;55274;43.060;25.618;2023-09-19T15:54:12;27.98;;;3.78;;
68353;SDS011;55274;43.060;25.618;2023-09-19T15:56:39;20.42;;;4.15;;
68353;SDS011;55274;43.060;25.618;2023-09-19T15:59:09;37.22;;;4.57;;
68353;SDS011;55274;43.060;25.618;2023-09-19T16:01:39;38.85;;;4.60;;
68353;SDS011;55274;43.060;25.618;2023-09-19T16:04:08;43.72;;;5.57;;
68353;SDS011;55274;43.060;25.618;2023-09-19T16:06:34;29.48;;;3.83;;
68353;SDS011;55274;43.060;25.618;2023-09-19T16:09:01;33.70;;;3.63;;
68353;SDS011;55274;43.060;25.618;2023-09-19T16:11:29;31.83;;;3.83;;
68353;SDS011;55274;43.060;25.618;2023-09-19T16:13:57;19.92;;;3.58;;